createdAt,value
2024-03-05T00:00:12.062Z,7.50
2024-03-05T00:02:44.520Z,7.53
2024-03-05T00:05:15.258Z,7.55
2024-03-05T00:07:44.211Z,7.58
2024-03-05T00:10:14.141Z,7.59
2024-03-05T00:12:42.185Z,7.57
2024-03-05T00:15:10.857Z,7.56
2024-03-05T00:17:38.953Z,7.50
2024-03-05T00:20:14.415Z,7.51
2024-03-05T00:22:43.086Z,7.56
2024-03-05T00:25:12.366Z,7.55
2024-03-05T00:27:41.816Z,7.49
2024-03-05T00:30:13.225Z,7.51
2024-03-05T00:32:41.854Z,7.53
2024-03-05T00:35:11.328Z,7.46
2024-03-05T00:37:40.161Z,7.38
2024-03-05T00:40:10.630Z,7.53
2024-03-05T00:42:38.457Z,7.52
2024-03-05T00:45:09.505Z,7.23
2024-03-05T00:47:38.066Z,7.49
2024-03-05T00:50:08.056Z,7.45
2024-03-05T00:52:36.213Z,7.41
2024-03-05T00:55:07.106Z,7.44
2024-03-05T00:57:35.791Z,7.42
2024-03-05T01:00:03.834Z,7.42
2024-03-05T01:02:33.227Z,7.40
2024-03-05T01:05:01.298Z,7.37
2024-03-05T01:07:29.265Z,7.32
2024-03-05T01:09:57.240Z,7.35
2024-03-05T01:12:25.153Z,7.39
2024-03-05T01:14:53.123Z,7.40
2024-03-05T01:17:21.048Z,7.39
2024-03-05T01:19:50.486Z,7.45
2024-03-05T01:22:18.570Z,7.26
2024-03-05T01:24:46.694Z,7.42
2024-03-05T01:27:15.563Z,7.41
2024-03-05T01:29:44.227Z,7.42
2024-03-05T01:32:14.137Z,7.46
2024-03-05T01:34:44.481Z,7.47
2024-03-05T01:37:14.397Z,7.50
2024-03-05T01:39:42.506Z,7.36
2024-03-05T01:42:10.522Z,7.54
2024-03-05T01:44:38.516Z,7.54
2024-03-05T01:47:07.056Z,7.55
2024-03-05T01:49:35.826Z,7.45
2024-03-05T01:52:04.652Z,7.55
2024-03-05T01:54:34.465Z,7.54
2024-03-05T01:57:05.391Z,7.53
2024-03-05T01:59:33.308Z,7.53
2024-03-05T02:02:01.455Z,7.54
2024-03-05T02:04:32.804Z,7.53
2024-03-05T02:07:04.157Z,7.59
2024-03-05T02:09:33.557Z,7.61
2024-03-05T02:12:04.245Z,7.64
2024-03-05T02:14:33.628Z,7.70
2024-03-05T02:17:02.720Z,7.57
2024-03-05T02:19:30.921Z,7.66
2024-03-05T02:22:03.833Z,7.71
2024-03-05T02:24:32.282Z,7.77
2024-03-05T02:27:02.876Z,7.80
2024-03-05T02:29:32.270Z,7.75
2024-03-05T02:32:00.572Z,7.74
2024-03-05T02:34:28.739Z,7.61
2024-03-05T02:36:57.387Z,7.64
2024-03-05T02:39:28.387Z,7.65
2024-03-05T02:41:56.501Z,7.73
2024-03-05T02:44:24.494Z,7.62
2024-03-05T02:46:52.888Z,7.68
2024-03-05T02:49:21.102Z,7.63
2024-03-05T02:51:49.612Z,7.65
2024-03-05T02:54:17.856Z,7.60
2024-03-05T02:56:47.218Z,7.61
2024-03-05T02:59:16.055Z,7.64
2024-03-05T03:01:48.673Z,7.67
2024-03-05T03:04:17.226Z,7.68
2024-03-05T03:06:45.317Z,7.76
2024-03-05T03:09:13.291Z,7.70
2024-03-05T03:11:42.475Z,7.77
2024-03-05T03:14:12.979Z,7.71
2024-03-05T03:16:44.881Z,7.63
2024-03-05T03:19:13.335Z,7.63
2024-03-05T03:21:42.231Z,7.61
2024-03-05T03:24:12.715Z,7.56
2024-03-05T03:26:40.590Z,7.52
2024-03-05T03:29:12.447Z,7.46
2024-03-05T03:31:47.016Z,7.41
2024-03-05T03:34:17.359Z,7.53
2024-03-05T03:36:45.585Z,7.43
2024-03-05T03:39:19.017Z,7.38
2024-03-05T03:41:49.886Z,7.45
2024-03-05T03:44:18.599Z,7.39
2024-03-05T03:46:48.015Z,7.44
2024-03-05T03:49:17.315Z,7.44
2024-03-05T03:51:45.382Z,7.47
2024-03-05T03:54:13.314Z,7.42
2024-03-05T03:56:41.196Z,7.49
2024-03-05T03:59:09.123Z,7.52
2024-03-05T04:01:37.875Z,7.50
2024-03-05T04:04:07.323Z,7.44
2024-03-05T04:06:35.706Z,7.39
2024-03-05T04:09:04.402Z,7.41
2024-03-05T04:11:32.795Z,7.45
2024-03-05T04:14:03.955Z,7.48
2024-03-05T04:16:32.311Z,7.45
2024-03-05T04:19:00.786Z,7.45
2024-03-05T04:21:30.109Z,7.45
2024-03-05T04:23:57.979Z,7.42
2024-03-05T04:26:27.932Z,7.29
2024-03-05T04:28:56.450Z,7.34
2024-03-05T04:31:26.855Z,7.43
2024-03-05T04:34:00.236Z,7.45
2024-03-05T04:36:28.240Z,7.43
2024-03-05T04:38:57.732Z,7.44
2024-03-05T04:41:25.826Z,7.39
2024-03-05T04:43:53.799Z,7.32
2024-03-05T04:46:21.707Z,7.37
2024-03-05T04:48:49.838Z,7.37
2024-03-05T04:51:17.832Z,7.36
2024-03-05T04:53:45.829Z,7.34
2024-03-05T04:56:15.117Z,7.28
2024-03-05T04:58:43.026Z,7.31
2024-03-05T05:01:14.066Z,7.31
2024-03-05T05:03:44.094Z,7.33
2024-03-05T05:06:12.330Z,7.41
2024-03-05T05:08:40.335Z,7.41
2024-03-05T05:11:09.193Z,7.41
2024-03-05T05:13:38.617Z,7.37
2024-03-05T05:16:09.627Z,7.27
2024-03-05T05:18:37.638Z,7.36
2024-03-05T05:21:08.648Z,7.38
2024-03-05T05:23:36.630Z,7.41
2024-03-05T05:26:04.948Z,7.40
2024-03-05T05:28:33.002Z,6.98
2024-03-05T05:31:04.873Z,7.20
2024-03-05T05:33:33.311Z,7.46
2024-03-05T05:36:01.126Z,7.49
2024-03-05T05:38:29.091Z,7.52
2024-03-05T05:40:57.055Z,7.55
2024-03-05T05:43:25.114Z,7.60
2024-03-05T05:45:53.143Z,7.57
2024-03-05T05:48:29.389Z,7.52
2024-03-05T05:50:59.814Z,7.48
2024-03-05T05:53:28.065Z,7.38
2024-03-05T05:55:56.080Z,7.53
2024-03-05T05:58:27.345Z,7.64
2024-03-05T06:00:55.452Z,7.60
2024-03-05T06:03:25.483Z,7.56
2024-03-05T06:05:53.442Z,7.49
2024-03-05T06:08:21.839Z,7.48
2024-03-05T06:10:50.193Z,7.54
2024-03-05T06:13:18.209Z,7.53
2024-03-05T06:15:47.584Z,7.54
2024-03-05T06:18:15.529Z,7.50
2024-03-05T06:20:44.935Z,7.51
2024-03-05T06:23:13.644Z,7.52
2024-03-05T06:25:41.678Z,7.58
2024-03-05T06:28:10.586Z,7.68
2024-03-05T06:30:39.264Z,7.67
2024-03-05T06:33:10.033Z,7.64
2024-03-05T06:35:38.263Z,7.58
2024-03-05T06:38:09.553Z,7.12
2024-03-05T06:40:38.569Z,7.65
2024-03-05T06:43:14.120Z,7.69
2024-03-05T06:45:43.966Z,7.70
2024-03-05T06:48:17.573Z,7.70
2024-03-05T06:50:53.277Z,7.62
2024-03-05T06:53:39.834Z,7.71
2024-03-05T06:56:25.695Z,7.68
2024-03-05T06:58:54.404Z,7.62
2024-03-05T07:01:23.599Z,7.77
2024-03-05T07:03:51.691Z,7.70
2024-03-05T07:06:20.448Z,7.63
2024-03-05T07:08:50.578Z,7.81
2024-03-05T07:11:18.904Z,8.01
2024-03-05T07:13:49.620Z,7.85
2024-03-05T07:16:19.472Z,7.74
2024-03-05T07:18:50.296Z,7.76
2024-03-05T07:21:21.054Z,7.74
2024-03-05T07:23:51.732Z,7.71
2024-03-05T07:26:19.981Z,7.77
2024-03-05T07:28:48.482Z,7.76
2024-03-05T07:31:18.322Z,7.80
2024-03-05T07:33:49.183Z,7.86
2024-03-05T07:36:19.866Z,7.80
2024-03-05T07:38:47.937Z,7.63
2024-03-05T07:41:26.345Z,7.53
2024-03-05T07:44:01.371Z,7.59
2024-03-05T07:46:29.831Z,7.57
2024-03-05T07:48:57.765Z,7.58
2024-03-05T07:51:29.113Z,7.63
2024-03-05T07:54:01.327Z,7.77
2024-03-05T07:56:30.781Z,7.84
2024-03-05T07:58:59.038Z,7.86
2024-03-05T08:01:27.192Z,7.72
2024-03-05T08:03:55.146Z,7.87
2024-03-05T08:06:23.071Z,7.63
2024-03-05T08:08:51.010Z,7.85
2024-03-05T08:11:19.108Z,7.88
2024-03-05T08:13:49.192Z,7.84
2024-03-05T08:16:17.249Z,7.64
2024-03-05T08:18:45.674Z,7.95
2024-03-05T08:21:14.600Z,8.07
2024-03-05T08:23:42.461Z,8.10
2024-03-05T08:26:10.530Z,8.15
2024-03-05T08:28:38.675Z,8.23
2024-03-05T08:31:09.359Z,8.10
2024-03-05T08:33:37.415Z,8.37
2024-03-05T08:36:05.966Z,8.40
2024-03-05T08:38:33.949Z,8.36
2024-03-05T08:41:02.907Z,8.37
2024-03-05T08:43:31.656Z,8.48
2024-03-05T08:45:59.622Z,8.52
2024-03-05T08:48:29.765Z,8.48
2024-03-05T08:50:59.698Z,7.97
2024-03-05T08:53:28.225Z,8.46
2024-03-05T08:55:56.162Z,8.45
2024-03-05T08:58:24.721Z,8.27
2024-03-05T09:00:52.928Z,8.48
2024-03-05T09:03:20.988Z,8.41
2024-03-05T09:05:50.311Z,8.41
2024-03-05T09:08:18.230Z,8.39
2024-03-05T09:10:48.038Z,8.40
2024-03-05T09:13:16.130Z,8.25
2024-03-05T09:15:44.787Z,8.25
2024-03-05T09:18:15.624Z,8.30
2024-03-05T09:20:44.697Z,8.29
2024-03-05T09:23:14.192Z,8.37
2024-03-05T09:25:43.626Z,8.36
2024-03-05T09:28:12.556Z,8.29
2024-03-05T09:30:41.166Z,8.02
2024-03-05T09:33:11.319Z,8.14
2024-03-05T09:35:39.895Z,7.92
2024-03-05T09:38:08.545Z,7.68
2024-03-05T09:40:40.057Z,7.13
2024-03-05T09:43:09.384Z,6.63
2024-03-05T09:45:39.404Z,7.44
2024-03-05T09:48:09.985Z,7.39
2024-03-05T09:50:38.916Z,7.33
2024-03-05T09:53:07.348Z,7.43
2024-03-05T09:55:35.380Z,7.16
2024-03-05T09:58:10.428Z,7.08
2024-03-05T10:00:39.669Z,7.17
2024-03-05T10:03:09.793Z,7.18
2024-03-05T10:05:38.414Z,6.97
2024-03-05T10:08:07.483Z,7.08
2024-03-05T10:10:35.819Z,7.17
2024-03-05T10:13:05.449Z,7.27
2024-03-05T10:15:35.700Z,7.16
2024-03-05T10:18:04.156Z,7.14
2024-03-05T10:20:35.136Z,7.04
2024-03-05T10:23:05.312Z,7.09
2024-03-05T10:25:36.060Z,7.15
2024-03-05T10:28:09.831Z,7.13
2024-03-05T10:30:39.199Z,6.95
2024-03-05T10:33:09.081Z,7.16
2024-03-05T10:35:39.148Z,6.81
2024-03-05T10:38:09.820Z,7.08
2024-03-05T10:40:39.527Z,7.10
2024-03-05T10:43:10.586Z,7.26
2024-03-05T10:45:41.842Z,7.52
2024-03-05T10:48:11.989Z,7.39
2024-03-05T10:50:42.372Z,7.21
2024-03-05T10:53:11.184Z,7.27
2024-03-05T10:55:40.546Z,7.36
2024-03-05T10:58:28.097Z,7.38
2024-03-05T11:00:58.835Z,7.01
2024-03-05T11:03:40.228Z,7.22
2024-03-05T11:06:09.794Z,7.48
2024-03-05T11:08:38.924Z,7.33
2024-03-05T11:11:11.089Z,7.12
2024-03-05T11:13:42.345Z,7.19
2024-03-05T11:16:11.143Z,7.09
2024-03-05T11:18:40.115Z,7.16
2024-03-05T11:21:10.469Z,7.14
2024-03-05T11:23:40.221Z,7.36
2024-03-05T11:26:09.367Z,7.41
2024-03-05T11:28:40.354Z,7.76
2024-03-05T11:31:14.774Z,8.08
2024-03-05T11:33:44.191Z,7.90
2024-03-05T11:36:21.758Z,8.04
2024-03-05T11:39:05.658Z,7.81
2024-03-05T11:41:34.756Z,8.05
2024-03-05T11:44:04.928Z,8.08
2024-03-05T11:46:42.670Z,8.48
2024-03-05T11:49:11.657Z,8.31
2024-03-05T11:51:41.426Z,8.32
2024-03-05T11:54:10.695Z,8.63
2024-03-05T11:56:38.750Z,8.47
2024-03-05T11:59:09.644Z,8.80
2024-03-05T12:01:38.069Z,8.59
2024-03-05T12:04:08.991Z,8.46
2024-03-05T12:06:37.429Z,8.34
2024-03-05T12:09:19.365Z,8.32
2024-03-05T12:12:04.194Z,8.22
2024-03-05T12:14:35.963Z,8.34
2024-03-05T12:17:08.325Z,8.30
2024-03-05T12:19:38.778Z,8.01
2024-03-05T12:22:08.224Z,8.41
2024-03-05T12:24:37.710Z,8.30
2024-03-05T12:27:07.068Z,8.30
2024-03-05T12:29:38.534Z,8.17
2024-03-05T12:32:08.730Z,8.29
2024-03-05T12:34:37.555Z,8.31
2024-03-05T12:37:09.302Z,8.69
2024-03-05T12:39:38.041Z,8.60
2024-03-05T12:42:08.011Z,8.43
2024-03-05T12:44:37.362Z,8.38
2024-03-05T12:47:09.577Z,8.37
2024-03-05T12:49:42.009Z,8.04
2024-03-05T12:52:10.240Z,8.16
2024-03-05T12:54:38.282Z,8.12
2024-03-05T12:57:07.225Z,8.14
2024-03-05T12:59:35.107Z,8.27
2024-03-05T13:02:04.634Z,8.37
2024-03-05T13:04:34.168Z,8.27
2024-03-05T13:07:02.124Z,7.96
2024-03-05T13:09:30.002Z,7.70
2024-03-05T13:11:58.064Z,7.78
2024-03-05T13:14:27.204Z,7.68
2024-03-05T13:16:56.046Z,7.69
2024-03-05T13:19:25.836Z,7.86
2024-03-05T13:21:54.304Z,7.85
2024-03-05T13:24:22.778Z,7.66
2024-03-05T13:26:50.773Z,7.93
2024-03-05T13:29:20.310Z,7.78
2024-03-05T13:31:48.576Z,7.72
2024-03-05T13:34:16.838Z,7.73
2024-03-05T13:36:47.866Z,7.79
2024-03-05T13:39:19.531Z,7.89
2024-03-05T13:41:49.403Z,7.77
2024-03-05T13:44:17.489Z,7.69
2024-03-05T13:46:45.923Z,7.66
2024-03-05T13:49:18.434Z,7.70
2024-03-05T13:51:47.935Z,7.50
2024-03-05T13:54:14.972Z,7.52
2024-03-05T13:56:44.547Z,7.46
2024-03-05T13:59:13.024Z,7.66
2024-03-05T14:01:42.547Z,7.53
2024-03-05T14:04:11.665Z,7.40
2024-03-05T14:06:40.417Z,7.54
2024-03-05T14:09:12.094Z,7.30
2024-03-05T14:11:42.130Z,7.39
2024-03-05T14:14:17.298Z,7.41
2024-03-05T14:16:45.404Z,7.42
2024-03-05T14:19:13.327Z,7.44
2024-03-05T14:21:41.326Z,7.46
2024-03-05T14:24:13.747Z,7.36
2024-03-05T14:26:43.191Z,7.21
2024-03-05T14:29:11.698Z,7.21
2024-03-05T14:31:39.614Z,7.31
2024-03-05T14:34:07.673Z,7.02
2024-03-05T14:36:38.081Z,7.19
2024-03-05T14:39:10.727Z,6.98
2024-03-05T14:41:40.136Z,6.80
2024-03-05T14:44:11.805Z,6.85
2024-03-05T14:46:40.765Z,7.10
2024-03-05T14:49:10.026Z,7.17
2024-03-05T14:51:38.068Z,7.35
2024-03-05T14:54:08.213Z,7.41
2024-03-05T14:56:37.884Z,7.44
2024-03-05T14:59:07.570Z,7.01
2024-03-05T15:01:36.528Z,6.79
2024-03-05T15:04:04.673Z,6.79
2024-03-05T15:06:32.731Z,6.50
2024-03-05T15:09:00.660Z,6.63
2024-03-05T15:11:28.785Z,6.60
2024-03-05T15:13:57.884Z,6.60
2024-03-05T15:16:27.915Z,6.55
2024-03-05T15:18:58.803Z,6.57
2024-03-05T15:21:26.753Z,6.37
2024-03-05T15:23:54.691Z,5.99
2024-03-05T15:26:22.580Z,6.47
2024-03-05T15:28:51.248Z,6.51
2024-03-05T15:31:19.142Z,6.64
2024-03-05T15:33:48.437Z,6.38
2024-03-05T15:36:16.398Z,6.27
2024-03-05T15:38:44.470Z,6.41
2024-03-05T15:41:12.607Z,6.44
2024-03-05T15:43:40.741Z,6.45
2024-03-05T15:46:08.717Z,6.20
2024-03-05T15:48:36.585Z,6.37
2024-03-05T15:51:06.229Z,6.33
2024-03-05T15:53:34.104Z,6.27
2024-03-05T15:56:13.503Z,6.35
2024-03-05T15:59:00.004Z,6.68
2024-03-05T16:01:28.294Z,6.34
2024-03-05T16:04:15.144Z,6.17
2024-03-05T16:06:53.289Z,6.01
2024-03-05T16:09:21.431Z,6.08
2024-03-05T16:11:50.905Z,6.01
2024-03-05T16:14:18.842Z,5.92
2024-03-05T16:16:46.829Z,5.98
2024-03-05T16:19:14.750Z,5.96
2024-03-05T16:21:42.694Z,5.87
2024-03-05T16:24:12.884Z,6.13
2024-03-05T16:26:40.880Z,6.22
2024-03-05T16:29:08.843Z,6.25
2024-03-05T16:31:37.136Z,6.40
2024-03-05T16:34:07.068Z,6.38
2024-03-05T16:36:35.143Z,6.22
2024-03-05T16:39:04.398Z,6.35
2024-03-05T16:41:35.338Z,6.18
2024-03-05T16:44:04.663Z,6.55
2024-03-05T16:46:34.917Z,6.55
2024-03-05T16:49:04.790Z,6.11
2024-03-05T16:51:32.772Z,6.00
2024-03-05T16:54:00.675Z,6.10
2024-03-05T16:56:28.633Z,6.20
2024-03-05T16:58:57.927Z,6.20
2024-03-05T17:01:26.018Z,6.24
2024-03-05T17:03:57.034Z,6.14
2024-03-05T17:06:25.804Z,5.99
2024-03-05T17:08:53.779Z,5.93
2024-03-05T17:11:24.204Z,6.17
2024-03-05T17:13:52.565Z,6.24
2024-03-05T17:16:23.127Z,6.04
2024-03-05T17:18:52.748Z,6.26
2024-03-05T17:21:20.670Z,5.93
2024-03-05T17:23:48.921Z,5.83
2024-03-05T17:26:17.459Z,6.03
2024-03-05T17:28:46.096Z,6.15
2024-03-05T17:31:14.130Z,6.19
2024-03-05T17:33:43.564Z,6.39
2024-03-05T17:36:12.129Z,6.37
2024-03-05T17:38:40.168Z,6.08
2024-03-05T17:41:09.181Z,5.66
2024-03-05T17:43:37.939Z,5.75
2024-03-05T17:46:07.433Z,6.01
2024-03-05T17:48:35.539Z,5.87
2024-03-05T17:51:05.311Z,5.73
2024-03-05T17:53:33.279Z,5.73
2024-03-05T17:56:02.904Z,5.77
2024-03-05T17:58:31.014Z,5.70
2024-03-05T18:00:59.266Z,5.81
2024-03-05T18:03:35.909Z,5.79
2024-03-05T18:06:06.126Z,5.73
2024-03-05T18:08:34.000Z,5.75
2024-03-05T18:11:02.457Z,5.91
2024-03-05T18:13:30.513Z,5.66
2024-03-05T18:15:58.533Z,5.82
2024-03-05T18:18:26.458Z,5.80
2024-03-05T18:20:55.124Z,5.89
2024-03-05T18:23:24.480Z,5.72
2024-03-05T18:25:52.454Z,5.68
2024-03-05T18:28:23.799Z,5.65
2024-03-05T18:30:51.859Z,5.66
2024-03-05T18:33:20.132Z,5.66
2024-03-05T18:35:48.416Z,5.66
2024-03-05T18:38:24.899Z,5.64
2024-03-05T18:41:01.291Z,5.66
2024-03-05T18:43:31.302Z,5.51
2024-03-05T18:46:01.860Z,5.54
2024-03-05T18:48:31.298Z,5.64
2024-03-05T18:50:59.507Z,5.53
2024-03-05T18:53:36.411Z,5.63
2024-03-05T18:56:13.853Z,5.81
2024-03-05T18:58:44.253Z,5.83
2024-03-05T19:01:15.366Z,5.69
2024-03-05T19:03:45.029Z,5.75
2024-03-05T19:06:13.121Z,5.54
2024-03-05T19:08:41.133Z,5.44
2024-03-05T19:11:10.521Z,5.46
2024-03-05T19:13:41.845Z,5.76
2024-03-05T19:16:10.977Z,5.66
2024-03-05T19:18:39.092Z,5.78
2024-03-05T19:21:07.812Z,5.58
2024-03-05T19:23:35.917Z,5.62
2024-03-05T19:26:04.582Z,5.68
2024-03-05T19:28:35.585Z,5.80
2024-03-05T19:31:07.148Z,5.86
2024-03-05T19:33:35.082Z,6.03
2024-03-05T19:36:04.735Z,6.10
2024-03-05T19:38:33.068Z,5.84
2024-03-05T19:41:01.274Z,5.59
2024-03-05T19:43:30.001Z,5.53
2024-03-05T19:45:58.641Z,5.40
2024-03-05T19:48:28.984Z,5.44
2024-03-05T19:50:57.051Z,5.40
2024-03-05T19:53:25.086Z,5.78
2024-03-05T19:55:54.049Z,5.44
2024-03-05T19:58:22.113Z,5.36
2024-03-05T20:00:50.315Z,5.47
2024-03-05T20:03:18.419Z,5.52
2024-03-05T20:05:50.610Z,5.44
2024-03-05T20:08:19.823Z,5.54
2024-03-05T20:10:48.058Z,5.57
2024-03-05T20:13:17.021Z,5.76
2024-03-05T20:15:45.887Z,5.74
2024-03-05T20:18:14.292Z,5.50
2024-03-05T20:20:42.908Z,5.69
2024-03-05T20:23:12.816Z,5.79
2024-03-05T20:25:42.829Z,5.77
2024-03-05T20:28:13.962Z,5.48
2024-03-05T20:30:45.835Z,5.51
2024-03-05T20:33:14.018Z,5.77
2024-03-05T20:35:43.503Z,5.46
2024-03-05T20:38:14.547Z,5.37
2024-03-05T20:40:42.870Z,5.45
2024-03-05T20:43:11.875Z,5.48
2024-03-05T20:45:42.071Z,5.78
2024-03-05T20:48:10.209Z,5.79
2024-03-05T20:50:38.205Z,5.77
2024-03-05T20:53:06.952Z,5.90
2024-03-05T20:55:36.337Z,5.89
2024-03-05T20:58:05.325Z,5.84
2024-03-05T21:00:33.497Z,5.78
2024-03-05T21:03:01.713Z,5.79
2024-03-05T21:05:31.350Z,5.79
2024-03-05T21:07:59.388Z,5.80
2024-03-05T21:10:27.543Z,5.52
2024-03-05T21:12:56.975Z,5.34
2024-03-05T21:15:26.194Z,5.35
2024-03-05T21:17:54.628Z,5.48
2024-03-05T21:20:22.759Z,5.50
2024-03-05T21:22:50.976Z,5.56
2024-03-05T21:25:19.257Z,5.46
2024-03-05T21:27:47.264Z,5.55
2024-03-05T21:30:17.510Z,5.83
2024-03-05T21:32:46.055Z,5.81
2024-03-05T21:35:14.814Z,5.24
2024-03-05T21:37:42.874Z,5.30
2024-03-05T21:40:14.059Z,5.25
2024-03-05T21:42:44.671Z,5.25
2024-03-05T21:45:15.027Z,5.13
2024-03-05T21:47:45.313Z,5.35
2024-03-05T21:50:13.797Z,5.36
2024-03-05T21:52:46.065Z,5.24
2024-03-05T21:55:14.746Z,5.36
2024-03-05T21:57:45.391Z,5.15
2024-03-05T22:00:16.344Z,5.09
2024-03-05T22:02:45.788Z,5.10
2024-03-05T22:05:14.180Z,5.15
2024-03-05T22:07:42.377Z,5.13
2024-03-05T22:10:10.986Z,5.44
2024-03-05T22:12:39.185Z,5.41
2024-03-05T22:15:08.156Z,5.38
2024-03-05T22:17:36.434Z,5.39
2024-03-05T22:20:07.680Z,5.22
2024-03-05T22:22:35.904Z,5.21
2024-03-05T22:25:07.507Z,5.27
2024-03-05T22:27:36.030Z,5.36
2024-03-05T22:30:05.251Z,5.31
2024-03-05T22:32:33.256Z,5.29
2024-03-05T22:35:01.282Z,5.23
2024-03-05T22:37:31.212Z,5.31
2024-03-05T22:39:59.527Z,5.07
2024-03-05T22:42:27.500Z,5.14
2024-03-05T22:44:55.417Z,5.06
2024-03-05T22:47:24.094Z,5.08
2024-03-05T22:49:51.971Z,5.21
2024-03-05T22:52:21.025Z,5.24
2024-03-05T22:54:50.343Z,5.34
2024-03-05T22:57:18.414Z,4.91
2024-03-05T22:59:46.371Z,4.80
2024-03-05T23:02:16.785Z,5.16
2024-03-05T23:04:44.813Z,5.10
2024-03-05T23:07:14.317Z,5.16
2024-03-05T23:09:42.661Z,5.31
2024-03-05T23:12:16.392Z,5.34
2024-03-05T23:14:44.442Z,5.19
2024-03-05T23:17:17.115Z,5.35
2024-03-05T23:19:45.415Z,5.23
2024-03-05T23:22:13.664Z,5.01
2024-03-05T23:24:41.638Z,5.03
2024-03-05T23:27:09.813Z,5.11
2024-03-05T23:29:41.478Z,5.00
2024-03-05T23:32:09.576Z,5.01
2024-03-05T23:34:37.568Z,5.11
2024-03-05T23:37:06.614Z,5.20
2024-03-05T23:39:34.597Z,5.00
2024-03-05T23:42:02.632Z,4.99
2024-03-05T23:44:30.693Z,4.92
2024-03-05T23:47:00.182Z,4.95
2024-03-05T23:49:28.140Z,5.06
2024-03-05T23:51:56.159Z,5.09
2024-03-05T23:54:24.040Z,5.06
2024-03-05T23:56:52.637Z,5.09
2024-03-05T23:59:21.001Z,4.51
